createdAt,value
2019-06-08T00:00:38.109Z,71.09
2019-06-08T00:01:38.114Z,70.61
2019-06-08T00:02:38.126Z,70.80
2019-06-08T00:03:38.149Z,70.80
2019-06-08T00:04:38.163Z,70.99
2019-06-08T00:05:38.180Z,71.76
2019-06-08T00:06:38.216Z,71.76
2019-06-08T00:07:38.203Z,71.57
2019-06-08T00:08:38.221Z,71.37
2019-06-08T00:09:38.234Z,71.57
2019-06-08T00:10:38.259Z,71.37
2019-06-08T00:11:38.272Z,71.28
2019-06-08T00:12:38.284Z,72.39
2019-06-08T00:13:38.296Z,72.49
2019-06-08T00:14:38.315Z,72.11
2019-06-08T00:15:38.331Z,72.11
2019-06-08T00:16:38.343Z,72.78
2019-06-08T00:17:39.144Z,72.20
2019-06-08T00:18:38.372Z,72.68
2019-06-08T00:19:38.388Z,72.20
2019-06-08T00:20:38.405Z,72.68
2019-06-08T00:21:38.423Z,72.68
2019-06-08T00:22:38.436Z,72.78
2019-06-08T00:23:38.457Z,72.59
2019-06-08T00:24:38.492Z,72.97
2019-06-08T00:25:38.487Z,72.68
2019-06-08T00:26:38.511Z,72.88
2019-06-08T00:27:38.511Z,73.26
2019-06-08T00:28:38.527Z,73.07
2019-06-08T00:29:38.538Z,72.68
2019-06-08T00:30:39.241Z,73.07
2019-06-08T00:31:38.574Z,72.78
2019-06-08T00:32:38.591Z,73.16
2019-06-08T00:33:38.607Z,72.78
2019-06-08T00:34:38.617Z,73.07
2019-06-08T00:35:38.648Z,72.88
2019-06-08T00:36:38.646Z,72.78
2019-06-08T00:37:38.660Z,73.07
2019-06-08T00:38:38.687Z,72.68
2019-06-08T00:39:38.698Z,72.49
2019-06-08T00:40:38.719Z,72.78
2019-06-08T00:41:38.724Z,72.88
2019-06-08T00:42:38.740Z,72.88
2019-06-08T00:43:38.756Z,72.78
2019-06-08T00:44:38.766Z,73.07
2019-06-08T00:46:38.803Z,72.39
2019-06-08T00:47:47.627Z,72.78
2019-06-08T00:48:38.827Z,72.97
2019-06-08T00:49:38.847Z,72.88
2019-06-08T00:50:38.865Z,72.88
2019-06-08T00:51:38.878Z,72.78
2019-06-08T00:52:38.886Z,72.97
2019-06-08T00:53:38.906Z,72.78
2019-06-08T00:54:38.919Z,72.88
2019-06-08T00:55:38.937Z,72.97
2019-06-08T00:56:38.951Z,72.74
2019-06-08T00:57:38.967Z,73.13
2019-06-08T00:58:38.982Z,72.94
2019-06-08T00:59:39.002Z,73.07
2019-06-08T01:00:39.039Z,73.26
2019-06-08T01:01:39.028Z,72.74
2019-06-08T01:02:39.047Z,72.74
2019-06-08T01:03:39.062Z,72.94
2019-06-08T01:04:39.075Z,72.74
2019-06-08T01:05:39.087Z,73.03
2019-06-08T01:06:39.110Z,72.64
2019-06-08T01:07:39.125Z,72.68
2019-06-08T01:08:39.140Z,72.74
2019-06-08T01:09:39.152Z,72.94
2019-06-08T01:10:39.163Z,72.45
2019-06-08T01:11:39.179Z,72.64
2019-06-08T01:12:39.217Z,72.64
2019-06-08T01:13:39.218Z,72.45
2019-06-08T01:14:39.227Z,72.64
2019-06-08T01:15:39.241Z,72.45
2019-06-08T01:16:39.251Z,72.64
2019-06-08T01:17:39.268Z,72.36
2019-06-08T01:18:39.284Z,72.36
2019-06-08T01:19:39.302Z,71.98
2019-06-08T01:20:39.322Z,72.27
2019-06-08T01:21:39.342Z,72.64
2019-06-08T01:22:39.344Z,72.45
2019-06-08T01:23:39.364Z,72.45
2019-06-08T01:24:39.390Z,72.64
2019-06-08T01:25:39.396Z,72.45
2019-06-08T01:26:39.405Z,72.94
2019-06-08T01:27:39.421Z,72.27
2019-06-08T01:28:39.433Z,72.27
2019-06-08T01:29:39.451Z,72.74
2019-06-08T01:30:39.467Z,72.94
2019-06-08T01:31:39.482Z,73.03
2019-06-08T01:32:39.494Z,72.55
2019-06-08T01:33:39.509Z,72.74
2019-06-08T01:34:39.549Z,73.22
2019-06-08T01:35:39.540Z,72.94
2019-06-08T01:36:39.562Z,73.22
2019-06-08T01:37:39.570Z,73.22
2019-06-08T01:38:39.587Z,72.94
2019-06-08T01:39:39.603Z,72.55
2019-06-08T01:40:39.622Z,73.80
2019-06-08T01:41:39.633Z,73.03
2019-06-08T01:42:39.652Z,72.36
2019-06-08T01:43:39.661Z,72.74
2019-06-08T01:44:39.689Z,72.74
2019-06-08T01:45:39.692Z,72.45
2019-06-08T01:46:39.709Z,72.45
2019-06-08T01:47:39.725Z,72.55
2019-06-08T01:48:39.741Z,72.45
2019-06-08T01:49:39.750Z,72.27
2019-06-08T01:50:39.766Z,71.40
2019-06-08T01:51:39.784Z,71.78
2019-06-08T01:52:39.799Z,71.69
2019-06-08T01:53:39.815Z,71.40
2019-06-08T01:54:39.828Z,71.50
2019-06-08T01:55:39.851Z,71.11
2019-06-08T01:56:39.861Z,71.11
2019-06-08T01:57:39.880Z,70.73
2019-06-08T01:58:39.892Z,70.83
2019-06-08T01:59:39.904Z,70.73
2019-06-08T02:00:41.612Z,70.35
2019-06-08T02:01:39.949Z,70.25
2019-06-08T02:02:39.951Z,69.96
2019-06-08T02:03:39.981Z,69.87
2019-06-08T02:04:39.982Z,70.06
2019-06-08T02:05:39.993Z,69.96
2019-06-08T02:06:40.011Z,70.06
2019-06-08T02:07:40.027Z,69.29
2019-06-08T02:08:40.038Z,69.20
2019-06-08T02:09:40.056Z,69.29
2019-06-08T02:10:40.073Z,69.29
2019-06-08T02:11:40.092Z,69.48
2019-06-08T02:12:40.101Z,69.29
2019-06-08T02:13:40.119Z,69.20
2019-06-08T02:14:40.131Z,69.20
2019-06-08T02:15:40.167Z,69.58
2019-06-08T02:16:40.191Z,68.81
2019-06-08T02:17:40.182Z,69.01
2019-06-08T02:18:50.538Z,68.81
2019-06-08T02:19:40.208Z,69.29
2019-06-08T02:20:40.226Z,69.10
2019-06-08T02:21:40.238Z,69.20
2019-06-08T02:22:40.251Z,69.10
2019-06-08T02:23:40.267Z,69.20
2019-06-08T02:24:40.287Z,69.87
2019-06-08T02:25:40.304Z,69.77
2019-06-08T02:26:40.312Z,70.35
2019-06-08T02:27:40.330Z,70.54
2019-06-08T02:28:40.341Z,70.44
2019-06-08T02:29:40.363Z,69.96
2019-06-08T02:30:41.814Z,70.73
2019-06-08T02:31:41.985Z,70.73
2019-06-08T02:32:40.665Z,70.44
2019-06-08T02:33:40.591Z,70.73
2019-06-08T02:34:40.685Z,70.73
2019-06-08T02:35:41.794Z,71.02
2019-06-08T02:36:40.827Z,71.11
2019-06-08T02:37:40.479Z,70.92
2019-06-08T02:38:40.508Z,70.64
2019-06-08T02:39:40.516Z,71.21
2019-06-08T02:40:40.526Z,70.83
2019-06-08T02:41:40.542Z,70.64
2019-06-08T02:42:40.562Z,70.15
2019-06-08T02:43:40.593Z,70.15
2019-06-08T02:44:40.815Z,69.96
2019-06-08T02:45:40.648Z,70.64
2019-06-08T02:46:40.757Z,70.15
2019-06-08T02:47:41.193Z,70.25
2019-06-08T02:49:01.863Z,70.35
2019-06-08T02:49:40.659Z,69.96
2019-06-08T02:50:40.691Z,70.15
2019-06-08T02:51:41.144Z,69.87
2019-06-08T02:52:40.997Z,69.96
2019-06-08T02:53:41.562Z,69.77
2019-06-08T02:54:41.223Z,69.77
2019-06-08T02:55:40.757Z,70.15
2019-06-08T02:56:41.195Z,70.06
2019-06-08T02:57:40.794Z,70.15
2019-06-08T02:58:40.905Z,69.96
2019-06-08T02:59:41.149Z,70.35
2019-06-08T03:00:40.836Z,70.64
2019-06-08T03:01:40.930Z,69.48
2019-06-08T03:02:40.857Z,69.20
2019-06-08T03:03:40.889Z,69.01
2019-06-08T03:04:41.421Z,68.81
2019-06-08T03:05:40.911Z,69.01
2019-06-08T03:06:41.616Z,68.81
2019-06-08T03:07:41.306Z,68.24
2019-06-08T03:08:43.528Z,68.81
2019-06-08T03:09:41.262Z,68.33
2019-06-08T03:10:41.353Z,68.14
2019-06-08T03:11:41.488Z,67.95
2019-06-08T03:12:42.538Z,67.85
2019-06-08T03:13:42.529Z,67.47
2019-06-08T03:14:42.104Z,67.66
2019-06-08T03:15:43.521Z,67.57
2019-06-08T03:16:42.907Z,67.18
2019-06-08T03:17:42.089Z,67.57
2019-06-08T03:18:42.641Z,67.38
2019-06-08T03:19:41.973Z,67.95
2019-06-08T03:20:42.476Z,68.05
2019-06-08T03:21:42.470Z,67.57
2019-06-08T03:22:43.629Z,67.38
2019-06-08T03:23:43.241Z,67.76
2019-06-08T03:24:41.625Z,67.66
2019-06-08T03:25:45.900Z,67.09
2019-06-08T03:26:43.410Z,67.38
2019-06-08T03:27:43.092Z,67.09
2019-06-08T03:28:42.330Z,67.38
2019-06-08T03:29:42.176Z,66.71
2019-06-08T03:30:47.449Z,67.66
2019-06-08T03:31:53.479Z,66.89
2019-06-08T03:32:50.804Z,67.57
2019-06-08T03:33:51.076Z,67.76
2019-06-08T03:34:51.196Z,67.09
2019-06-08T03:35:52.488Z,67.09
2019-06-08T03:36:53.634Z,67.76
2019-06-08T03:37:42.830Z,67.28
2019-06-08T03:38:42.496Z,67.76
2019-06-08T03:39:43.012Z,67.66
2019-06-08T03:40:43.376Z,67.95
2019-06-08T03:41:42.746Z,67.38
2019-06-08T03:42:41.458Z,67.47
2019-06-08T03:43:42.393Z,67.18
2019-06-08T03:44:42.905Z,67.18
2019-06-08T03:45:43.056Z,67.28
2019-06-08T03:46:43.453Z,67.28
2019-06-08T03:47:43.496Z,67.66
2019-06-08T03:48:42.262Z,67.66
2019-06-08T03:49:52.287Z,67.18
2019-06-08T03:50:42.053Z,66.61
2019-06-08T03:51:45.765Z,66.89
2019-06-08T03:52:42.141Z,66.51
2019-06-08T03:53:42.618Z,66.42
2019-06-08T03:54:43.046Z,66.99
2019-06-08T03:55:42.970Z,66.80
2019-06-08T03:56:42.207Z,67.18
2019-06-08T03:57:42.168Z,67.09
2019-06-08T03:58:42.821Z,67.18
2019-06-08T03:59:43.724Z,67.28
2019-06-08T04:00:42.432Z,67.38
2019-06-08T04:01:41.755Z,67.09
2019-06-08T04:02:42.335Z,67.38
2019-06-08T04:03:42.134Z,67.38
2019-06-08T04:04:42.271Z,67.76
2019-06-08T04:05:42.704Z,67.57
2019-06-08T04:06:41.825Z,67.18
2019-06-08T04:07:42.519Z,67.28
2019-06-08T04:08:42.852Z,67.28
2019-06-08T04:09:41.870Z,67.47
2019-06-08T04:10:42.659Z,67.57
2019-06-08T04:11:42.364Z,67.28
2019-06-08T04:13:42.151Z,67.57
2019-06-08T04:14:42.246Z,68.05
2019-06-08T04:15:42.633Z,67.76
2019-06-08T04:16:42.852Z,68.14
2019-06-08T04:17:42.273Z,68.14
2019-06-08T04:18:42.150Z,68.05
2019-06-08T04:20:02.810Z,67.85
2019-06-08T04:20:44.982Z,68.14
2019-06-08T04:21:42.046Z,68.33
2019-06-08T04:22:42.308Z,68.14
2019-06-08T04:23:42.752Z,68.72
2019-06-08T04:24:42.544Z,68.81
2019-06-08T04:25:42.522Z,68.43
2019-06-08T04:26:42.980Z,68.91
2019-06-08T04:27:42.292Z,68.81
2019-06-08T04:28:42.525Z,68.91
2019-06-08T04:29:43.871Z,68.78
2019-06-08T04:30:42.994Z,69.20
2019-06-08T04:31:43.660Z,69.48
2019-06-08T04:32:42.842Z,69.29
2019-06-08T04:33:44.153Z,68.97
2019-06-08T04:34:42.918Z,69.07
2019-06-08T04:35:44.333Z,70.12
2019-06-08T04:36:44.068Z,69.74
2019-06-08T04:37:43.123Z,69.83
2019-06-08T04:38:43.321Z,70.60
2019-06-08T04:39:42.318Z,70.41
2019-06-08T04:40:43.482Z,70.50
2019-06-08T04:41:42.755Z,70.50
2019-06-08T04:42:44.046Z,70.31
2019-06-08T04:43:42.963Z,70.31
2019-06-08T04:44:42.643Z,70.12
2019-06-08T04:45:43.546Z,70.03
2019-06-08T04:46:43.269Z,70.12
2019-06-08T04:47:43.595Z,70.50
2019-06-08T04:48:43.107Z,70.79
2019-06-08T04:49:43.089Z,70.60
2019-06-08T04:50:43.094Z,70.31
2019-06-08T04:51:42.541Z,70.41
2019-06-08T04:52:42.691Z,70.41
2019-06-08T04:53:43.200Z,70.31
2019-06-08T04:54:42.700Z,70.41
2019-06-08T04:55:43.309Z,70.79
2019-06-08T04:56:42.799Z,71.08
2019-06-08T04:57:43.346Z,71.75
2019-06-08T04:58:44.739Z,71.08
2019-06-08T04:59:43.892Z,70.89
2019-06-08T05:00:43.959Z,69.64
2019-06-08T05:01:43.041Z,70.03
2019-06-08T05:02:44.686Z,69.83
2019-06-08T05:03:43.324Z,70.12
2019-06-08T05:04:43.217Z,70.12
2019-06-08T05:05:43.299Z,70.50
2019-06-08T05:06:43.044Z,70.12
2019-06-08T05:07:43.779Z,70.21
2019-06-08T05:08:43.082Z,70.31
2019-06-08T05:09:43.058Z,70.21
2019-06-08T05:10:43.312Z,70.41
2019-06-08T05:11:43.224Z,70.89
2019-06-08T05:12:43.394Z,70.21
2019-06-08T05:13:43.286Z,70.79
2019-06-08T05:14:43.109Z,70.89
2019-06-08T05:15:43.211Z,70.79
2019-06-08T05:16:43.185Z,70.60
2019-06-08T05:17:43.294Z,70.79
2019-06-08T05:18:43.188Z,71.46
2019-06-08T05:19:43.504Z,70.79
2019-06-08T05:20:45.296Z,70.98
2019-06-08T05:21:43.535Z,70.79
2019-06-08T05:22:43.646Z,70.60
2019-06-08T05:23:43.436Z,70.12
2019-06-08T05:24:43.513Z,70.70
2019-06-08T05:25:43.170Z,70.50
2019-06-08T05:26:43.620Z,70.31
2019-06-08T05:27:43.377Z,70.21
2019-06-08T05:28:43.219Z,70.41
2019-06-08T05:29:43.283Z,70.31
2019-06-08T05:30:43.269Z,70.31
2019-06-08T05:31:43.551Z,70.50
2019-06-08T05:32:43.573Z,70.41
2019-06-08T05:33:43.455Z,70.31
2019-06-08T05:34:43.429Z,70.31
2019-06-08T05:35:43.473Z,70.41
2019-06-08T05:36:43.412Z,70.41
2019-06-08T05:37:43.660Z,70.31
2019-06-08T05:38:43.476Z,70.03
2019-06-08T05:39:43.570Z,70.50
2019-06-08T05:40:43.573Z,71.27
2019-06-08T05:41:43.482Z,71.17
2019-06-08T05:42:44.207Z,70.41
2019-06-08T05:43:43.583Z,70.03
2019-06-08T05:44:43.635Z,69.07
2019-06-08T05:45:43.581Z,69.07
2019-06-08T05:46:43.739Z,69.26
2019-06-08T05:47:43.925Z,69.35
2019-06-08T05:48:43.863Z,69.35
2019-06-08T05:49:43.715Z,68.97
2019-06-08T05:50:58.797Z,68.97
2019-06-08T05:51:43.796Z,69.17
2019-06-08T05:52:44.159Z,68.87
2019-06-08T05:53:43.836Z,68.68
2019-06-08T05:54:43.828Z,68.11
2019-06-08T05:55:43.881Z,68.78
2019-06-08T05:56:43.873Z,69.26
2019-06-08T05:57:44.218Z,68.59
2019-06-08T05:58:43.947Z,68.97
2019-06-08T05:59:44.048Z,69.17
2019-06-08T06:00:44.192Z,69.17
2019-06-08T06:01:44.595Z,69.26
2019-06-08T06:02:44.734Z,69.45
2019-06-08T06:03:44.560Z,69.35
2019-06-08T06:04:44.396Z,68.87
2019-06-08T06:05:44.333Z,69.26
2019-06-08T06:06:44.584Z,69.35
2019-06-08T06:07:44.679Z,68.78
2019-06-08T06:08:44.659Z,68.68
2019-06-08T06:09:45.136Z,68.40
2019-06-08T06:10:44.775Z,68.78
2019-06-08T06:11:44.791Z,69.26
2019-06-08T06:12:45.276Z,69.26
2019-06-08T06:13:45.076Z,69.17
2019-06-08T06:14:44.748Z,69.17
2019-06-08T06:15:44.891Z,69.42
2019-06-08T06:16:44.890Z,69.07
2019-06-08T06:17:45.930Z,69.07
2019-06-08T06:18:44.922Z,69.35
2019-06-08T06:19:45.077Z,68.78
2019-06-08T06:20:45.272Z,68.87
2019-06-08T06:21:45.108Z,68.78
2019-06-08T06:22:44.328Z,69.45
2019-06-08T06:23:45.136Z,68.87
2019-06-08T06:24:43.903Z,69.07
2019-06-08T06:25:43.905Z,68.78
2019-06-08T06:26:43.926Z,68.49
2019-06-08T06:27:43.941Z,68.59
2019-06-08T06:28:43.953Z,68.78
2019-06-08T06:29:43.968Z,68.87
2019-06-08T06:30:44.225Z,68.87
2019-06-08T06:31:44.002Z,68.94
2019-06-08T06:33:44.026Z,68.94
2019-06-08T06:34:44.047Z,68.65
2019-06-08T06:35:44.055Z,68.78
2019-06-08T06:36:44.074Z,68.78
2019-06-08T06:37:44.085Z,68.78
2019-06-08T06:38:44.110Z,68.97
2019-06-08T06:39:44.115Z,69.17
2019-06-08T06:40:44.134Z,68.87
2019-06-08T06:41:44.165Z,69.26
2019-06-08T06:42:44.165Z,69.17
2019-06-08T06:43:44.190Z,68.68
2019-06-08T06:44:45.695Z,68.97
2019-06-08T06:45:44.407Z,68.87
2019-06-08T06:46:44.222Z,69.13
2019-06-08T06:47:44.255Z,69.45
2019-06-08T06:48:44.252Z,69.17
2019-06-08T06:49:44.553Z,69.17
2019-06-08T06:50:44.365Z,69.07
2019-06-08T06:51:44.426Z,69.03
2019-06-08T06:52:44.622Z,69.13
2019-06-08T06:53:44.983Z,69.13
2019-06-08T06:54:44.711Z,69.23
2019-06-08T06:55:44.850Z,69.23
2019-06-08T06:56:45.237Z,68.74
2019-06-08T06:57:45.096Z,68.65
2019-06-08T06:58:45.075Z,68.59
2019-06-08T06:59:45.672Z,68.84
2019-06-08T07:00:45.226Z,69.13
2019-06-08T07:01:45.460Z,68.78
2019-06-08T07:02:45.601Z,69.23
2019-06-08T07:03:44.482Z,69.35
2019-06-08T07:04:45.852Z,68.78
2019-06-08T07:05:45.707Z,68.40
2019-06-08T07:06:46.109Z,68.97
2019-06-08T07:07:44.543Z,68.87
2019-06-08T07:08:44.558Z,68.78
2019-06-08T07:09:44.570Z,68.74
2019-06-08T07:10:44.641Z,68.59
2019-06-08T07:11:44.598Z,68.65
2019-06-08T07:12:44.613Z,68.59
2019-06-08T07:13:44.659Z,68.84
2019-06-08T07:14:44.965Z,68.74
2019-06-08T07:15:44.884Z,68.55
2019-06-08T07:16:45.747Z,68.36
2019-06-08T07:17:45.961Z,68.46
2019-06-08T07:18:46.071Z,68.74
2019-06-08T07:19:44.717Z,68.74
2019-06-08T07:20:46.033Z,68.94
2019-06-08T07:21:46.047Z,68.46
2019-06-08T07:22:46.018Z,68.36
2019-06-08T07:23:46.148Z,68.55
2019-06-08T07:24:46.706Z,68.55
2019-06-08T07:25:46.204Z,68.84
2019-06-08T07:26:46.256Z,68.74
2019-06-08T07:27:44.839Z,69.32
2019-06-08T07:28:44.865Z,69.45
2019-06-08T07:29:44.873Z,69.35
2019-06-08T07:30:45.095Z,69.03
2019-06-08T07:31:44.913Z,68.49
2019-06-08T07:32:44.924Z,68.49
2019-06-08T07:33:44.927Z,68.87
2019-06-08T07:34:44.942Z,68.78
2019-06-08T07:35:44.961Z,68.11
2019-06-08T07:36:44.980Z,68.46
2019-06-08T07:37:44.984Z,68.49
2019-06-08T07:38:45.001Z,68.87
2019-06-08T07:39:45.017Z,68.87
2019-06-08T07:40:45.045Z,68.59
2019-06-08T07:41:45.046Z,68.21
2019-06-08T07:42:45.059Z,69.07
2019-06-08T07:43:45.076Z,68.78
2019-06-08T07:44:45.116Z,68.59
2019-06-08T07:45:45.109Z,68.87
2019-06-08T07:46:45.139Z,68.49
2019-06-08T07:47:45.134Z,68.78
2019-06-08T07:48:45.157Z,68.49
2019-06-08T07:49:45.173Z,67.91
2019-06-08T07:50:45.192Z,68.40
2019-06-08T07:51:58.888Z,67.82
2019-06-08T07:52:45.218Z,68.11
2019-06-08T07:53:45.227Z,68.11
2019-06-08T07:54:45.243Z,68.30
2019-06-08T07:55:45.521Z,68.78
2019-06-08T07:56:45.268Z,68.59
2019-06-08T07:57:45.314Z,68.78
2019-06-08T07:58:45.310Z,69.07
2019-06-08T07:59:45.328Z,68.87
2019-06-08T08:00:45.328Z,68.87
2019-06-08T08:01:45.349Z,68.97
2019-06-08T08:02:45.372Z,68.55
2019-06-08T08:03:45.385Z,69.32
2019-06-08T08:04:45.408Z,69.70
2019-06-08T08:05:45.412Z,70.18
2019-06-08T08:06:45.428Z,70.37
2019-06-08T08:07:45.439Z,69.60
2019-06-08T08:08:45.453Z,69.74
2019-06-08T08:09:45.474Z,68.94
2019-06-08T08:10:45.481Z,69.60
2019-06-08T08:11:45.501Z,69.70
2019-06-08T08:12:45.510Z,69.93
2019-06-08T08:13:45.542Z,69.93
2019-06-08T08:14:45.593Z,70.18
2019-06-08T08:15:45.557Z,70.50
2019-06-08T08:16:45.580Z,70.89
2019-06-08T08:17:45.581Z,70.41
2019-06-08T08:18:45.610Z,70.50
2019-06-08T08:19:45.611Z,70.12
2019-06-08T08:20:45.628Z,69.93
2019-06-08T08:21:48.279Z,69.89
2019-06-08T08:22:47.947Z,70.47
2019-06-08T08:23:47.721Z,70.37
2019-06-08T08:24:48.158Z,70.31
2019-06-08T08:25:47.447Z,70.31
2019-06-08T08:26:48.025Z,69.64
2019-06-08T08:27:47.820Z,70.31
2019-06-08T08:28:48.651Z,70.12
2019-06-08T08:29:47.570Z,69.93
2019-06-08T08:30:48.087Z,70.60
2019-06-08T08:31:47.839Z,70.41
2019-06-08T08:32:47.968Z,71.23
2019-06-08T08:33:45.833Z,71.04
2019-06-08T08:34:47.628Z,71.62
2019-06-08T08:35:48.060Z,71.37
2019-06-08T08:36:48.000Z,71.71
2019-06-08T08:37:47.435Z,71.91
2019-06-08T08:38:47.825Z,72.42
2019-06-08T08:39:47.352Z,72.09
2019-06-08T08:40:48.408Z,71.56
2019-06-08T08:41:49.957Z,71.56
2019-06-08T08:42:48.138Z,72.23
2019-06-08T08:43:48.334Z,72.03
2019-06-08T08:44:45.985Z,71.91
2019-06-08T08:45:47.714Z,72.32
2019-06-08T08:46:48.635Z,72.29
2019-06-08T08:47:48.348Z,72.03
2019-06-08T08:48:48.503Z,71.46
2019-06-08T08:49:47.961Z,71.27
2019-06-08T08:50:48.185Z,71.17
2019-06-08T08:51:47.699Z,70.89
2019-06-08T08:52:47.679Z,70.31
2019-06-08T08:53:48.196Z,71.27
2019-06-08T08:54:47.491Z,71.17
2019-06-08T08:55:48.028Z,70.89
2019-06-08T08:56:50.483Z,70.60
2019-06-08T08:57:48.449Z,70.50
2019-06-08T08:58:47.765Z,71.84
2019-06-08T08:59:50.161Z,71.17
2019-06-08T09:00:48.747Z,70.79
2019-06-08T09:01:48.265Z,71.27
2019-06-08T09:02:48.845Z,71.66
2019-06-08T09:03:48.231Z,70.70
2019-06-08T09:04:47.721Z,70.79
2019-06-08T09:05:48.325Z,70.89
2019-06-08T09:06:48.289Z,70.89
2019-06-08T09:07:48.302Z,71.17
2019-06-08T09:08:48.399Z,71.27
2019-06-08T09:09:48.286Z,70.70
2019-06-08T09:10:48.070Z,70.60
2019-06-08T09:11:48.425Z,70.03
2019-06-08T09:12:48.473Z,69.64
2019-06-08T09:13:48.716Z,69.93
2019-06-08T09:14:47.936Z,69.68
2019-06-08T09:15:48.001Z,69.20
2019-06-08T09:16:48.200Z,69.35
2019-06-08T09:17:48.282Z,68.97
2019-06-08T09:18:47.988Z,68.62
2019-06-08T09:19:48.017Z,68.91
2019-06-08T09:20:47.886Z,69.39
2019-06-08T09:21:48.173Z,68.81
2019-06-08T09:22:53.769Z,68.91
2019-06-08T09:23:48.648Z,68.72
2019-06-08T09:24:48.603Z,68.62
2019-06-08T09:25:48.297Z,68.43
2019-06-08T09:26:47.766Z,68.72
2019-06-08T09:27:48.184Z,69.10
2019-06-08T09:28:46.644Z,69.58
2019-06-08T09:29:48.213Z,68.62
2019-06-08T09:30:48.404Z,67.76
2019-06-08T09:31:48.852Z,67.57
2019-06-08T09:32:47.780Z,67.66
2019-06-08T09:33:53.405Z,67.02
2019-06-08T09:34:48.299Z,67.22
2019-06-08T09:35:47.892Z,66.83
2019-06-08T09:36:47.890Z,67.22
2019-06-08T09:37:48.545Z,67.50
2019-06-08T09:38:47.942Z,67.41
2019-06-08T09:39:48.283Z,67.47
2019-06-08T09:40:48.765Z,67.41
2019-06-08T09:41:47.898Z,66.93
2019-06-08T09:42:46.875Z,67.12
2019-06-08T09:43:48.706Z,66.83
2019-06-08T09:44:48.266Z,66.93
2019-06-08T09:45:48.318Z,67.60
2019-06-08T09:46:48.105Z,66.89
2019-06-08T09:47:47.871Z,66.93
2019-06-08T09:48:48.647Z,67.50
2019-06-08T09:49:48.046Z,67.12
2019-06-08T09:50:48.631Z,66.49
2019-06-08T09:51:48.711Z,66.67
2019-06-08T09:52:47.911Z,65.14
2019-06-08T09:53:47.635Z,65.14
2019-06-08T09:54:48.161Z,64.76
2019-06-08T09:55:48.172Z,65.65
2019-06-08T09:56:47.871Z,64.50
2019-06-08T09:57:48.537Z,64.59
2019-06-08T09:58:51.159Z,63.92
2019-06-08T09:59:48.232Z,63.64
2019-06-08T10:00:48.650Z,63.28
2019-06-08T10:01:47.172Z,63.38
2019-06-08T10:02:47.852Z,62.96
2019-06-08T10:03:48.233Z,63.45
2019-06-08T10:04:48.361Z,64.31
2019-06-08T10:05:48.386Z,65.08
2019-06-08T10:06:47.935Z,62.99
2019-06-08T10:07:48.714Z,62.87
2019-06-08T10:08:48.038Z,62.77
2019-06-08T10:09:47.446Z,63.06
2019-06-08T10:10:48.404Z,63.16
2019-06-08T10:11:47.303Z,63.73
2019-06-08T10:12:48.387Z,64.02
2019-06-08T10:13:47.933Z,64.50
2019-06-08T10:14:48.945Z,63.16
2019-06-08T10:15:48.715Z,63.83
2019-06-08T10:16:47.842Z,62.77
2019-06-08T10:17:47.703Z,63.16
2019-06-08T10:18:51.164Z,62.77
2019-06-08T10:19:47.733Z,62.68
2019-06-08T10:20:48.147Z,63.25
2019-06-08T10:21:48.166Z,63.35
2019-06-08T10:22:50.044Z,62.68
2019-06-08T10:23:48.372Z,63.25
2019-06-08T10:24:49.106Z,63.35
2019-06-08T10:25:48.185Z,63.54
2019-06-08T10:26:47.884Z,62.77
2019-06-08T10:27:47.568Z,63.32
2019-06-08T10:28:48.229Z,63.03
2019-06-08T10:29:48.371Z,63.12
2019-06-08T10:30:48.523Z,63.25
2019-06-08T10:31:48.335Z,63.32
2019-06-08T10:32:50.533Z,63.45
2019-06-08T10:33:48.241Z,63.16
2019-06-08T10:34:48.113Z,63.25
2019-06-08T10:35:48.068Z,63.16
2019-06-08T10:36:47.695Z,62.68
2019-06-08T10:37:47.913Z,62.68
2019-06-08T10:38:48.066Z,63.12
2019-06-08T10:39:47.940Z,63.12
2019-06-08T10:40:48.209Z,62.65
2019-06-08T10:41:51.296Z,63.22
2019-06-08T10:42:48.342Z,63.70
2019-06-08T10:43:48.306Z,63.22
2019-06-08T10:44:47.814Z,64.28
2019-06-08T10:45:48.316Z,63.99
2019-06-08T10:46:48.317Z,63.42
2019-06-08T10:47:48.061Z,63.03
2019-06-08T10:48:48.625Z,64.09
2019-06-08T10:49:49.013Z,63.32
2019-06-08T10:50:47.911Z,63.79
2019-06-08T10:51:48.716Z,63.83
2019-06-08T10:52:47.937Z,63.35
2019-06-08T10:53:52.545Z,63.35
2019-06-08T10:54:47.973Z,62.58
2019-06-08T10:55:48.213Z,62.77
2019-06-08T10:56:48.570Z,62.77
2019-06-08T10:57:48.039Z,62.96
2019-06-08T10:58:49.781Z,62.61
2019-06-08T10:59:48.605Z,62.32
2019-06-08T11:00:48.180Z,62.71
2019-06-08T11:01:48.101Z,62.71
2019-06-08T11:02:48.931Z,62.81
2019-06-08T11:03:48.964Z,62.90
2019-06-08T11:04:48.418Z,62.52
2019-06-08T11:05:48.303Z,62.42
2019-06-08T11:06:48.158Z,61.78
2019-06-08T11:07:48.210Z,61.58
2019-06-08T11:08:48.185Z,60.82
2019-06-08T11:09:50.627Z,61.30
2019-06-08T11:10:48.219Z,61.20
2019-06-08T11:11:48.305Z,60.53
2019-06-08T11:12:48.629Z,60.72
2019-06-08T11:13:50.514Z,60.53
2019-06-08T11:14:48.312Z,60.56
2019-06-08T11:15:48.292Z,60.56
2019-06-08T11:16:48.307Z,59.79
2019-06-08T11:17:48.337Z,58.92
2019-06-08T11:18:50.519Z,59.99
2019-06-08T11:19:48.378Z,59.99
2019-06-08T11:20:48.374Z,60.43
2019-06-08T11:21:48.388Z,61.30
2019-06-08T11:22:50.095Z,61.65
2019-06-08T11:24:04.768Z,61.84
2019-06-08T11:24:48.699Z,62.32
2019-06-08T11:25:48.934Z,62.32
2019-06-08T11:26:48.486Z,61.75
2019-06-08T11:27:48.476Z,62.32
2019-06-08T11:28:51.146Z,62.42
2019-06-08T11:29:48.520Z,61.84
2019-06-08T11:30:48.534Z,61.94
2019-06-08T11:31:51.025Z,61.17
2019-06-08T11:32:48.563Z,61.55
2019-06-08T11:33:49.143Z,61.68
2019-06-08T11:34:48.871Z,61.20
2019-06-08T11:35:48.604Z,60.53
2019-06-08T11:36:51.428Z,60.53
2019-06-08T11:37:48.911Z,61.11
2019-06-08T11:38:48.653Z,61.30
2019-06-08T11:39:49.187Z,60.75
2019-06-08T11:40:48.692Z,60.37
2019-06-08T11:41:48.721Z,59.99
2019-06-08T11:42:48.714Z,59.50
2019-06-08T11:43:48.727Z,60.37
2019-06-08T11:44:51.241Z,59.89
2019-06-08T11:45:48.763Z,59.34
2019-06-08T11:46:48.781Z,59.99
2019-06-08T11:47:48.794Z,59.53
2019-06-08T11:48:48.822Z,59.82
2019-06-08T11:49:50.078Z,59.99
2019-06-08T11:50:49.150Z,60.75
2019-06-08T11:51:48.858Z,60.27
2019-06-08T11:52:49.332Z,60.24
2019-06-08T11:53:51.984Z,59.95
2019-06-08T11:54:48.910Z,60.43
2019-06-08T11:55:51.134Z,60.53
2019-06-08T11:56:48.947Z,60.43
2019-06-08T11:57:48.968Z,61.01
2019-06-08T11:58:48.975Z,61.11
2019-06-08T11:59:49.185Z,61.30
2019-06-08T12:00:49.030Z,61.30
2019-06-08T12:01:50.504Z,61.30
2019-06-08T12:02:49.036Z,60.82
2019-06-08T12:03:49.062Z,61.78
2019-06-08T12:04:49.067Z,61.01
2019-06-08T12:05:50.810Z,60.63
2019-06-08T12:06:49.094Z,61.36
2019-06-08T12:07:49.134Z,61.27
2019-06-08T12:08:49.124Z,61.55
2019-06-08T12:09:50.319Z,61.17
2019-06-08T12:10:49.246Z,61.08
2019-06-08T12:11:49.176Z,61.36
2019-06-08T12:12:49.194Z,61.55
2019-06-08T12:13:49.199Z,61.94
2019-06-08T12:14:49.220Z,61.27
2019-06-08T12:15:49.251Z,62.13
2019-06-08T12:16:49.259Z,61.55
2019-06-08T12:17:50.393Z,62.23
2019-06-08T12:18:49.473Z,62.42
2019-06-08T12:19:49.300Z,62.90
2019-06-08T12:20:49.330Z,62.71
2019-06-08T12:21:49.839Z,63.45
2019-06-08T12:22:49.348Z,62.48
2019-06-08T12:23:49.374Z,62.77
2019-06-08T12:24:49.383Z,62.19
2019-06-08T12:25:49.406Z,62.68
2019-06-08T12:26:52.684Z,62.19
2019-06-08T12:27:52.621Z,62.39
2019-06-08T12:28:49.435Z,62.52
2019-06-08T12:29:50.416Z,62.42
2019-06-08T12:30:49.461Z,62.61
2019-06-08T12:31:49.485Z,62.32
2019-06-08T12:32:49.503Z,61.84
2019-06-08T12:33:49.512Z,61.27
2019-06-08T12:34:49.524Z,61.36
2019-06-08T12:35:49.541Z,61.84
2019-06-08T12:36:49.557Z,61.75
2019-06-08T12:37:51.508Z,61.84
2019-06-08T12:38:49.587Z,61.75
2019-06-08T12:39:49.632Z,62.32
2019-06-08T12:40:49.632Z,62.42
2019-06-08T12:41:49.642Z,62.52
2019-06-08T12:42:49.653Z,62.42
2019-06-08T12:43:49.669Z,62.42
2019-06-08T12:44:49.687Z,62.32
2019-06-08T12:45:49.704Z,61.75
2019-06-08T12:46:49.711Z,62.42
2019-06-08T12:47:49.725Z,62.26
2019-06-08T12:48:49.742Z,60.82
2019-06-08T12:49:49.760Z,59.99
2019-06-08T12:50:49.772Z,60.17
2019-06-08T12:51:51.696Z,60.08
2019-06-08T12:52:49.801Z,59.79
2019-06-08T12:53:49.824Z,59.92
2019-06-08T12:55:02.479Z,59.12
2019-06-08T12:55:49.849Z,58.92